Time;durP1;ratioP1;P1;durP2;ratioP2;P2;SDS_P1;SDS_P2;PMS_P1;PMS_P2;Temp;Humidity;BMP_temperature;BMP_pressure;BME280_temperature;BME280_humidity;BME280_pressure;Samples;Min_cycle;Max_cycle;Signal;HPM_P1;HPM_P2
2023/05/23 00:02:15;;;;;;;7.03;6.43;;;22.10;56.70;;;;;;4978102;28;20256;-80
2023/05/23 00:04:43;;;;;;;7.70;6.97;;;22.10;56.70;;;;;;4978457;28;20209;-80
2023/05/23 00:07:11;;;;;;;7.93;7.18;;;22.00;56.60;;;;;;4994418;28;20194;-80
2023/05/23 00:09:38;;;;;;;7.97;7.28;;;22.10;56.70;;;;;;4993967;28;20205;-80
2023/05/23 00:12:05;;;;;;;7.63;6.85;;;22.00;56.60;;;;;;4977279;28;20229;-80
2023/05/23 00:14:34;;;;;;;7.20;6.60;;;22.00;56.60;;;;;;4993941;28;20297;-80
2023/05/23 00:17:01;;;;;;;7.63;6.90;;;22.00;56.70;;;;;;4977898;28;20657;-80
2023/05/23 00:19:29;;;;;;;7.97;7.18;;;22.00;56.70;;;;;;4977815;28;20218;-80
2023/05/23 00:21:57;;;;;;;7.28;6.65;;;22.00;56.70;;;;;;4977741;28;20221;-80
2023/05/23 00:24:26;;;;;;;7.40;6.70;;;22.00;56.70;;;;;;4961770;28;20292;-80
2023/05/23 00:26:53;;;;;;;8.18;7.38;;;22.00;56.70;;;;;;4993525;28;20340;-80
2023/05/23 00:29:20;;;;;;;7.60;6.90;;;22.00;56.70;;;;;;4979121;28;20202;-80
2023/05/23 00:31:47;;;;;;;8.68;7.85;;;22.00;56.70;;;;;;4979577;28;20222;-80
2023/05/23 00:34:16;;;;;;;8.48;7.72;;;22.00;56.70;;;;;;4994974;28;20190;-80
2023/05/23 00:36:46;;;;;;;7.25;6.65;;;22.00;56.70;;;;;;4994930;28;20237;-80
2023/05/23 00:39:18;;;;;;;8.85;8.00;;;22.00;56.70;;;;;;4994808;28;20210;-80
2023/05/23 00:41:47;;;;;;;7.88;7.07;;;22.00;56.70;;;;;;4979188;28;20269;-80
2023/05/23 00:44:14;;;;;;;7.40;6.80;;;22.00;56.70;;;;;;4979660;28;20209;-80
2023/05/23 00:46:41;;;;;;;7.55;6.88;;;22.00;56.70;;;;;;4961232;28;20209;-80
2023/05/23 00:49:08;;;;;;;8.65;7.85;;;22.00;56.60;;;;;;4992664;28;20696;-80
2023/05/23 00:51:35;;;;;;;7.53;6.88;;;22.00;56.70;;;;;;4993262;28;20245;-80
2023/05/23 00:54:03;;;;;;;8.13;7.43;;;22.00;56.60;;;;;;4976693;28;20292;-80
2023/05/23 00:56:30;;;;;;;8.32;7.55;;;22.00;56.70;;;;;;4976291;28;20194;-80
2023/05/23 00:59:00;;;;;;;7.47;6.80;;;22.00;56.60;;;;;;4992489;28;20205;-80
2023/05/23 01:01:27;;;;;;;7.60;6.90;;;22.00;56.70;;;;;;4992457;28;20241;-80
2023/05/23 01:03:57;;;;;;;7.43;6.82;;;22.00;56.70;;;;;;4977026;28;20198;-80
2023/05/23 01:06:24;;;;;;;7.93;7.22;;;22.00;56.70;;;;;;4976874;28;20206;-80
2023/05/23 01:08:51;;;;;;;7.88;7.18;;;21.90;56.50;;;;;;4992448;28;20566;-80
2023/05/23 01:11:22;;;;;;;8.05;7.35;;;21.90;56.60;;;;;;4976372;28;20696;-80
2023/05/23 01:13:54;;;;;;;8.70;7.90;;;21.90;56.60;;;;;;4976848;28;20202;-80
2023/05/23 01:16:27;;;;;;;8.15;7.45;;;21.90;56.70;;;;;;4975899;28;20205;-80
2023/05/23 01:18:56;;;;;;;8.02;7.30;;;21.90;56.70;;;;;;4975937;28;20190;-80
2023/05/23 01:21:23;;;;;;;8.27;7.57;;;21.90;56.70;;;;;;4975874;28;20261;-80
2023/05/23 01:24:08;;;;;;;8.05;7.35;;;21.90;56.70;;;;;;4977075;28;20202;-80
2023/05/23 01:26:41;;;;;;;7.85;7.15;;;21.90;56.70;;;;;;4991776;28;20641;-80
2023/05/23 01:29:11;;;;;;;9.20;8.32;;;21.80;56.60;;;;;;4975187;28;20226;-80
2023/05/23 01:31:40;;;;;;;7.40;6.70;;;21.90;56.70;;;;;;4992237;28;20282;-80
2023/05/23 01:34:07;;;;;;;8.25;7.45;;;21.80;56.60;;;;;;4992360;28;20293;-80
2023/05/23 01:36:35;;;;;;;7.75;7.00;;;21.80;56.70;;;;;;4975737;28;20209;-80
2023/05/23 01:39:02;;;;;;;8.68;7.88;;;21.80;56.70;;;;;;4991581;28;20206;-80
2023/05/23 01:41:30;;;;;;;8.80;8.00;;;21.80;56.70;;;;;;4959905;28;20218;-80
2023/05/23 01:43:57;;;;;;;9.27;8.38;;;21.80;56.70;;;;;;4992354;28;20206;-80
2023/05/23 01:46:25;;;;;;;8.77;7.97;;;21.80;56.80;;;;;;4975901;28;20229;-80
2023/05/23 01:48:53;;;;;;;7.93;7.20;;;21.80;56.80;;;;;;4992330;28;20202;-80
2023/05/23 01:51:21;;;;;;;9.10;8.20;;;21.70;56.70;;;;;;4975834;28;20210;-80
2023/05/23 01:53:48;;;;;;;8.65;7.85;;;21.70;56.70;;;;;;4992303;28;20198;-80
2023/05/23 01:56:15;;;;;;;9.27;8.38;;;21.70;56.70;;;;;;4993232;28;20194;-80
2023/05/23 01:58:42;;;;;;;11.45;10.25;;;21.80;56.80;;;;;;4992138;28;20233;-80
2023/05/23 02:01:10;;;;;;;9.23;7.60;;;21.70;56.80;;;;;;4976470;28;20660;-80
2023/05/23 02:03:39;;;;;;;11.95;10.75;;;21.70;56.80;;;;;;4992150;28;20397;-80
2023/05/23 02:06:06;;;;;;;8.65;7.85;;;21.70;56.90;;;;;;4975872;28;20547;-80
2023/05/23 02:08:34;;;;;;;9.50;8.60;;;21.70;56.90;;;;;;4991982;28;20199;-80
2023/05/23 02:11:02;;;;;;;9.80;8.80;;;21.70;56.90;;;;;;4976009;28;20206;-80
2023/05/23 02:13:30;;;;;;;8.90;8.15;;;21.70;57.50;;;;;;4976456;28;20198;-80
2023/05/23 02:15:56;;;;;;;9.52;8.60;;;21.70;56.90;;;;;;4975561;28;20692;-80
2023/05/23 02:18:25;;;;;;;9.77;8.60;;;21.70;56.90;;;;;;4959816;28;20229;-80
2023/05/23 02:20:55;;;;;;;10.38;9.38;;;21.70;56.90;;;;;;4974814;28;20218;-80
2023/05/23 02:23:22;;;;;;;9.23;8.32;;;21.70;56.90;;;;;;4992101;28;20683;-80
2023/05/23 02:25:49;;;;;;;12.18;10.98;;;21.60;56.80;;;;;;4975062;28;20649;-80
2023/05/23 02:28:16;;;;;;;10.50;9.50;;;21.60;56.90;;;;;;4979365;28;20692;-80
2023/05/23 02:30:43;;;;;;;11.05;9.95;;;21.60;56.90;;;;;;4962690;28;20206;-80
2023/05/23 02:33:11;;;;;;;11.45;10.25;;;21.60;56.80;;;;;;4995084;28;20313;-80
2023/05/23 02:35:38;;;;;;;10.20;9.20;;;21.60;56.90;;;;;;4979577;28;20665;-80
2023/05/23 02:38:07;;;;;;;10.82;9.80;;;21.60;56.90;;;;;;4995846;28;20202;-80
2023/05/23 02:40:34;;;;;;;10.88;9.80;;;21.60;56.90;;;;;;4995563;28;20677;-80
2023/05/23 02:43:02;;;;;;;11.43;10.18;;;21.60;56.90;;;;;;4995479;28;20673;-80
2023/05/23 02:45:30;;;;;;;9.80;8.82;;;21.60;56.90;;;;;;4997161;28;20536;-80
2023/05/23 02:47:59;;;;;;;11.05;9.95;;;21.60;56.90;;;;;;4996953;28;20202;-80
2023/05/23 02:50:26;;;;;;;11.30;10.18;;;21.60;56.90;;;;;;4996281;28;20194;-80
2023/05/23 02:52:53;;;;;;;12.02;10.75;;;21.60;57.00;;;;;;4997071;28;20222;-80
2023/05/23 02:55:23;;;;;;;11.35;10.15;;;21.60;57.00;;;;;;5012727;28;20269;-80
2023/05/23 02:57:51;;;;;;;11.38;10.15;;;21.50;57.00;;;;;;5014015;28;20205;-80
2023/05/23 03:00:19;;;;;;;11.45;10.25;;;21.50;57.00;;;;;;4995390;28;20214;-80
2023/05/23 03:02:50;;;;;;;10.73;9.73;;;21.60;57.20;;;;;;4983398;28;20225;-80
2023/05/23 03:05:18;;;;;;;8.43;7.63;;;21.50;57.10;;;;;;4979544;28;20736;-80
2023/05/23 03:07:45;;;;;;;12.32;11.02;;;21.50;57.20;;;;;;4996280;28;20206;-80
2023/05/23 03:10:12;;;;;;;11.70;10.50;;;21.50;57.20;;;;;;4983079;28;20199;-80
2023/05/23 03:12:41;;;;;;;11.45;10.25;;;21.50;57.20;;;;;;4981867;28;20241;-80
2023/05/23 03:15:09;;;;;;;10.57;9.57;;;21.50;57.20;;;;;;4997534;28;20206;-80
2023/05/23 03:17:39;;;;;;;10.90;9.48;;;21.50;57.20;;;;;;4997570;28;20209;-80
2023/05/23 03:20:08;;;;;;;11.95;10.68;;;21.50;57.20;;;;;;4966604;28;20222;-80
2023/05/23 03:22:35;;;;;;;10.55;9.45;;;21.50;57.10;;;;;;4981551;28;20210;-80
2023/05/23 03:25:03;;;;;;;10.88;9.77;;;21.50;57.20;;;;;;4997613;28;20206;-81
2023/05/23 03:27:30;;;;;;;10.57;9.57;;;21.60;57.10;;;;;;4997549;28;20198;-81
2023/05/23 03:29:59;;;;;;;9.73;8.75;;;21.60;57.10;;;;;;4981470;28;20205;-81
2023/05/23 03:32:26;;;;;;;10.57;9.57;;;21.60;57.00;;;;;;4996325;28;20218;-81
2023/05/23 03:34:53;;;;;;;10.55;9.55;;;21.70;57.00;;;;;;4980946;28;20640;-81
2023/05/23 03:37:20;;;;;;;11.25;10.15;;;21.70;56.90;;;;;;4979985;28;20198;-81
2023/05/23 03:39:48;;;;;;;11.07;9.98;;;21.80;56.90;;;;;;4997174;28;20194;-81
2023/05/23 03:42:15;;;;;;;9.98;9.07;;;21.80;56.70;;;;;;4980823;28;20226;-81
2023/05/23 03:44:42;;;;;;;10.10;9.10;;;21.80;56.60;;;;;;4996958;28;20202;-81
2023/05/23 03:47:11;;;;;;;11.20;10.10;;;21.90;56.60;;;;;;4996839;28;20209;-81
2023/05/23 03:49:40;;;;;;;10.93;9.93;;;21.90;56.50;;;;;;4979808;28;20202;-81
2023/05/23 03:52:10;;;;;;;11.18;10.07;;;21.90;56.30;;;;;;4994697;28;20221;-81
2023/05/23 03:54:37;;;;;;;11.02;9.93;;;22.00;56.30;;;;;;5016312;28;20178;-81
2023/05/23 03:57:04;;;;;;;10.35;9.30;;;22.00;56.20;;;;;;5004760;28;20241;-81
2023/05/23 03:59:31;;;;;;;11.75;10.60;;;22.00;56.20;;;;;;4982413;28;20202;-81
2023/05/23 04:01:59;;;;;;;12.35;11.05;;;22.00;56.20;;;;;;4995170;28;20236;-81
2023/05/23 04:04:29;;;;;;;12.15;10.90;;;22.00;56.20;;;;;;4994807;28;20221;-81
2023/05/23 04:06:57;;;;;;;12.43;11.15;;;22.00;56.20;;;;;;4979562;28;20668;-81
2023/05/23 04:09:24;;;;;;;13.32;11.93;;;22.10;56.30;;;;;;4995540;28;20669;-81
2023/05/23 04:11:51;;;;;;;11.93;10.73;;;22.10;56.20;;;;;;4962395;28;20634;-81
2023/05/23 04:14:21;;;;;;;11.98;10.85;;;22.10;56.20;;;;;;4994414;28;20228;-81
2023/05/23 04:16:49;;;;;;;11.40;10.30;;;22.10;56.20;;;;;;4994925;28;20194;-81
2023/05/23 04:19:16;;;;;;;11.57;10.38;;;22.10;56.20;;;;;;4979139;28;20273;-80
2023/05/23 04:21:46;;;;;;;13.15;11.65;;;22.10;56.20;;;;;;4978192;28;20265;-80
2023/05/23 04:24:15;;;;;;;12.20;10.90;;;22.10;56.20;;;;;;4978432;28;20244;-80
2023/05/23 04:26:43;;;;;;;12.55;11.25;;;22.10;56.20;;;;;;4979307;28;20312;-81
2023/05/23 04:29:11;;;;;;;12.90;11.70;;;22.10;56.00;;;;;;4993936;28;20209;-81
2023/05/23 04:31:38;;;;;;;12.95;11.68;;;22.00;56.00;;;;;;4978197;28;20305;-81
2023/05/23 04:34:06;;;;;;;14.15;12.65;;;22.10;56.00;;;;;;4993344;28;20205;-81
2023/05/23 04:36:38;;;;;;;14.23;12.82;;;22.10;56.10;;;;;;4992823;28;20324;-82
2023/05/23 04:39:06;;;;;;;15.73;13.63;;;22.10;56.10;;;;;;4992132;28;20206;-82
2023/05/23 04:41:39;;;;;;;15.00;13.48;;;22.10;56.20;;;;;;4992534;28;20230;-82
2023/05/23 04:44:18;;;;;;;17.17;15.43;;;22.10;56.20;;;;;;4961272;28;20189;-81
2023/05/23 04:46:51;;;;;;;15.32;13.73;;;22.10;56.40;;;;;;5009943;22;20651;-78
2023/05/23 04:49:25;;;;;;;15.57;14.07;;;22.10;56.40;;;;;;4978691;28;20202;-78
2023/05/23 04:51:53;;;;;;;15.75;13.80;;;22.20;56.70;;;;;;4977715;28;20260;-78
2023/05/23 04:54:28;;;;;;;14.70;12.55;;;22.20;56.70;;;;;;4977989;28;20695;-78
2023/05/23 04:56:56;;;;;;;15.15;13.55;;;22.10;56.70;;;;;;4977624;28;20563;-78
2023/05/23 04:59:25;;;;;;;15.93;14.25;;;22.20;56.70;;;;;;4977747;28;20211;-78
2023/05/23 05:01:52;;;;;;;16.40;13.98;;;22.20;56.90;;;;;;4977751;28;20646;-78
2023/05/23 05:04:21;;;;;;;14.20;12.13;;;22.20;56.70;;;;;;4978319;28;20231;-78
2023/05/23 05:06:51;;;;;;;14.85;13.35;;;22.20;56.80;;;;;;4978590;28;20285;-78
2023/05/23 05:09:18;;;;;;;16.75;14.57;;;22.20;56.80;;;;;;4977592;28;20742;-78
2023/05/23 05:11:48;;;;;;;15.77;14.15;;;22.20;57.00;;;;;;4977630;28;20220;-77
2023/05/23 05:14:15;;;;;;;14.90;13.30;;;22.20;56.60;;;;;;4978553;28;20208;-77
2023/05/23 05:16:43;;;;;;;15.38;13.88;;;22.20;56.70;;;;;;4978365;28;20199;-77
2023/05/23 05:19:10;;;;;;;16.52;13.68;;;22.20;56.70;;;;;;4962604;28;20197;-78
2023/05/23 05:21:37;;;;;;;15.07;13.55;;;22.20;56.90;;;;;;4977803;28;20240;-77
2023/05/23 05:24:08;;;;;;;15.68;14.18;;;22.20;57.00;;;;;;4977855;28;20597;-77
2023/05/23 05:26:35;;;;;;;19.55;16.73;;;22.30;57.10;;;;;;4978351;28;20521;-77
2023/05/23 05:29:03;;;;;;;16.10;14.10;;;22.20;56.90;;;;;;4978579;28;20197;-77
2023/05/23 05:31:31;;;;;;;16.38;14.68;;;22.30;57.00;;;;;;4977395;28;20206;-77
2023/05/23 05:33:58;;;;;;;18.00;15.73;;;22.20;56.90;;;;;;4977247;28;20206;-78
2023/05/23 05:36:27;;;;;;;17.58;15.52;;;22.20;56.80;;;;;;4977452;28;20204;-78
2023/05/23 05:38:54;;;;;;;17.50;15.55;;;22.30;56.90;;;;;;4977177;28;20742;-78
2023/05/23 05:41:22;;;;;;;17.50;15.70;;;22.20;56.80;;;;;;4976970;28;20660;-78
2023/05/23 05:43:51;;;;;;;15.98;13.98;;;22.20;56.80;;;;;;4976928;28;20228;-77
2023/05/23 05:46:20;;;;;;;15.00;13.40;;;22.30;56.90;;;;;;4977079;28;20532;-77
2023/05/23 05:48:48;;;;;;;18.23;16.33;;;22.30;56.80;;;;;;4977603;28;20202;-78
2023/05/23 05:51:17;;;;;;;16.70;15.00;;;22.30;56.70;;;;;;4961395;28;20210;-77
2023/05/23 05:53:45;;;;;;;16.45;14.85;;;22.30;56.70;;;;;;4977896;28;20252;-78
2023/05/23 05:56:12;;;;;;;18.83;16.15;;;22.30;56.70;;;;;;4978032;28;20197;-78
2023/05/23 05:58:39;;;;;;;18.27;15.25;;;22.30;56.70;;;;;;4977196;28;20204;-77
2023/05/23 06:01:08;;;;;;;16.15;14.50;;;22.30;56.70;;;;;;4978773;28;20236;-77
2023/05/23 06:03:38;;;;;;;14.43;12.95;;;22.30;56.60;;;;;;4980835;28;20252;-77
2023/05/23 06:06:05;;;;;;;13.88;12.45;;;22.30;56.40;;;;;;4964903;28;20204;-76
2023/05/23 06:08:32;;;;;;;14.05;12.55;;;22.30;56.40;;;;;;4980759;28;20272;-76
2023/05/23 06:11:00;;;;;;;12.55;11.27;;;22.40;56.50;;;;;;4981012;28;20272;-76
2023/05/23 06:13:27;;;;;;;12.98;11.77;;;22.40;56.40;;;;;;4981207;28;20201;-76
2023/05/23 06:15:55;;;;;;;13.13;11.65;;;22.40;56.40;;;;;;4965508;28;20265;-76
2023/05/23 06:18:23;;;;;;;13.77;12.38;;;22.40;56.30;;;;;;4965278;28;20677;-76
2023/05/23 06:20:53;;;;;;;13.32;12.02;;;22.40;56.20;;;;;;4981379;28;20208;-77
2023/05/23 06:23:21;;;;;;;14.43;13.00;;;22.40;56.10;;;;;;4981662;28;20197;-78
2023/05/23 06:25:49;;;;;;;15.40;13.80;;;22.40;56.00;;;;;;4981088;28;20201;-77
2023/05/23 06:28:16;;;;;;;14.07;12.60;;;22.40;56.10;;;;;;4981366;28;20243;-77
2023/05/23 06:30:45;;;;;;;12.88;11.65;;;22.50;56.00;;;;;;4981027;28;20198;-77
2023/05/23 06:33:13;;;;;;;14.32;12.82;;;22.50;56.00;;;;;;4981268;28;20205;-77
2023/05/23 06:35:40;;;;;;;13.75;12.35;;;22.50;55.90;;;;;;4981005;28;20208;-77
2023/05/23 06:38:08;;;;;;;14.20;12.90;;;22.50;55.80;;;;;;4998494;28;20194;-77
2023/05/23 06:40:36;;;;;;;14.05;12.65;;;22.50;55.80;;;;;;4980208;28;20204;-77
2023/05/23 06:43:03;;;;;;;13.57;12.35;;;22.50;55.80;;;;;;4980236;28;20715;-77
2023/05/23 06:45:40;;;;;;;13.93;12.48;;;22.50;55.70;;;;;;4966750;28;20198;-77
2023/05/23 06:48:12;;;;;;;14.07;12.68;;;22.60;55.70;;;;;;4980598;28;20194;-78
2023/05/23 06:50:40;;;;;;;15.27;12.68;;;22.60;55.60;;;;;;4980075;28;20225;-78
2023/05/23 06:53:08;;;;;;;14.88;13.27;;;22.60;55.60;;;;;;4979829;28;20209;-78
2023/05/23 06:55:36;;;;;;;13.75;12.38;;;22.60;55.60;;;;;;4963937;28;20576;-77
2023/05/23 06:58:05;;;;;;;15.73;14.13;;;22.60;55.50;;;;;;4980181;28;20224;-77
2023/05/23 07:00:33;;;;;;;13.57;12.27;;;22.70;55.50;;;;;;4980044;28;20205;-77
2023/05/23 07:03:27;;;;;;;15.73;14.13;;;22.70;55.60;;;;;;4995611;28;20212;-77
2023/05/23 07:05:57;;;;;;;15.35;13.75;;;22.70;55.50;;;;;;4979943;28;20244;-77
2023/05/23 07:08:27;;;;;;;15.13;13.70;;;22.70;55.50;;;;;;4988796;28;20612;-77
2023/05/23 07:11:01;;;;;;;14.73;13.30;;;22.70;55.40;;;;;;4980531;28;20264;-77
2023/05/23 07:13:32;;;;;;;14.10;12.68;;;22.70;55.40;;;;;;4979215;28;20690;-77
2023/05/23 07:16:00;;;;;;;14.68;13.27;;;22.70;55.50;;;;;;4980045;28;20232;-78
2023/05/23 07:18:27;;;;;;;14.52;13.20;;;22.70;55.40;;;;;;4980172;28;20217;-77
2023/05/23 07:20:55;;;;;;;15.18;13.80;;;22.70;55.30;;;;;;4979539;28;20280;-77
2023/05/23 07:23:22;;;;;;;13.02;11.73;;;22.70;55.20;;;;;;4980118;28;20220;-78
2023/05/23 07:25:52;;;;;;;16.27;14.68;;;22.70;55.20;;;;;;4980704;28;20285;-78
2023/05/23 07:28:25;;;;;;;15.10;13.70;;;22.70;55.10;;;;;;4979321;28;20659;-78
2023/05/23 07:30:56;;;;;;;16.15;14.55;;;22.70;55.10;;;;;;4979196;28;20205;-78
2023/05/23 07:33:23;;;;;;;15.10;13.65;;;22.70;55.10;;;;;;4980227;28;20245;-78
2023/05/23 07:35:51;;;;;;;14.45;13.15;;;22.70;55.10;;;;;;4979414;28;20198;-78
2023/05/23 07:38:18;;;;;;;15.32;13.73;;;22.70;55.10;;;;;;4979664;28;20200;-77
2023/05/23 07:40:45;;;;;;;14.27;13.02;;;22.70;55.10;;;;;;4979575;28;20232;-77
2023/05/23 07:43:14;;;;;;;12.63;11.52;;;22.70;55.10;;;;;;4979399;28;20233;-77
2023/05/23 07:45:41;;;;;;;13.68;12.20;;;22.60;54.90;;;;;;4979060;28;20223;-77
2023/05/23 07:48:09;;;;;;;13.85;12.45;;;22.60;54.80;;;;;;4979258;28;20293;-77
2023/05/23 07:50:38;;;;;;;13.88;12.57;;;22.70;54.90;;;;;;4979311;28;20289;-77
2023/05/23 07:53:05;;;;;;;13.23;11.93;;;22.60;54.70;;;;;;4963698;28;20217;-77
2023/05/23 07:55:33;;;;;;;12.40;11.20;;;22.70;54.90;;;;;;4978862;28;20204;-77
2023/05/23 07:58:00;;;;;;;14.02;12.70;;;22.60;54.80;;;;;;4978740;28;20248;-77
2023/05/23 08:00:29;;;;;;;14.88;13.48;;;22.60;54.70;;;;;;4978646;28;20196;-77
2023/05/23 08:03:04;;;;;;;14.65;13.27;;;22.60;54.70;;;;;;4978960;28;20589;-77
2023/05/23 08:05:38;;;;;;;13.90;12.70;;;22.60;54.70;;;;;;4979372;28;20277;-77
2023/05/23 08:08:05;;;;;;;13.68;12.38;;;22.60;54.80;;;;;;4978287;28;20197;-77
2023/05/23 08:10:33;;;;;;;13.50;12.30;;;22.60;54.80;;;;;;4978286;28;20687;-77
2023/05/23 08:13:06;;;;;;;13.65;12.43;;;22.60;54.80;;;;;;4978402;28;20573;-78
2023/05/23 08:15:41;;;;;;;14.63;13.13;;;22.60;54.80;;;;;;4978586;28;20204;-78
2023/05/23 08:18:15;;;;;;;13.77;12.55;;;22.60;54.70;;;;;;4979316;28;20726;-78
2023/05/23 08:20:42;;;;;;;15.05;13.55;;;22.60;54.80;;;;;;4978455;28;20206;-77
2023/05/23 08:23:10;;;;;;;13.60;12.40;;;22.60;54.70;;;;;;4977935;28;20217;-77
2023/05/23 08:25:38;;;;;;;12.05;10.95;;;22.60;54.60;;;;;;4977997;28;20296;-77
2023/05/23 08:28:05;;;;;;;11.77;10.68;;;22.60;54.50;;;;;;4978148;28;20197;-77
2023/05/23 08:30:48;;;;;;;11.80;10.80;;;22.60;54.50;;;;;;4977812;28;20661;-77
2023/05/23 08:33:15;;;;;;;10.85;9.90;;;22.60;54.50;;;;;;4978615;28;20564;-77
2023/05/23 08:35:45;;;;;;;12.05;10.90;;;22.60;54.40;;;;;;4962679;28;20224;-77
2023/05/23 08:38:14;;;;;;;10.38;9.48;;;22.60;54.30;;;;;;4977900;28;20197;-77
2023/05/23 08:40:56;;;;;;;11.23;10.23;;;22.60;54.30;;;;;;4978789;28;20197;-77
2023/05/23 08:43:25;;;;;;;10.98;10.00;;;22.60;54.30;;;;;;4977972;28;20217;-77
2023/05/23 08:45:54;;;;;;;11.25;10.25;;;22.60;54.10;;;;;;4977923;28;20772;-77
2023/05/23 08:48:22;;;;;;;10.65;9.75;;;22.60;54.10;;;;;;4978659;28;20575;-78
2023/05/23 08:50:51;;;;;;;10.10;9.20;;;22.70;54.20;;;;;;4978953;28;20668;-78
2023/05/23 08:53:20;;;;;;;11.50;10.45;;;22.70;54.10;;;;;;4978049;28;20239;-78
2023/05/23 08:55:51;;;;;;;11.80;10.80;;;22.70;54.00;;;;;;4979247;28;20185;-77
2023/05/23 08:58:21;;;;;;;10.98;9.93;;;22.70;53.80;;;;;;4977728;28;20609;-77
2023/05/23 09:00:55;;;;;;;10.30;9.40;;;22.80;53.90;;;;;;4977973;28;20271;-77
2023/05/23 09:03:25;;;;;;;10.73;9.82;;;22.80;53.80;;;;;;4977588;28;20244;-77
2023/05/23 09:06:04;;;;;;;10.80;9.75;;;22.80;53.80;;;;;;4977509;28;20213;-77
2023/05/23 09:08:31;;;;;;;11.18;10.07;;;22.80;53.70;;;;;;4977869;28;20213;-77
2023/05/23 09:11:01;;;;;;;10.43;9.52;;;22.80;53.60;;;;;;4977934;28;20307;-77
2023/05/23 09:13:30;;;;;;;10.43;9.43;;;22.80;53.70;;;;;;4977426;28;20189;-78
2023/05/23 09:16:01;;;;;;;10.82;9.90;;;22.80;53.60;;;;;;4977420;28;20209;-77
2023/05/23 09:18:33;;;;;;;10.30;9.40;;;22.80;53.70;;;;;;4977710;28;20193;-77
2023/05/23 09:21:01;;;;;;;10.75;9.80;;;22.80;53.60;;;;;;4977436;28;20197;-77
2023/05/23 09:23:30;;;;;;;9.98;9.10;;;22.90;53.60;;;;;;4977299;28;20303;-77
2023/05/23 09:26:01;;;;;;;11.20;10.20;;;22.90;53.50;;;;;;4961509;28;20197;-77
2023/05/23 09:28:28;;;;;;;10.02;9.13;;;22.90;53.50;;;;;;4977900;28;20193;-77
2023/05/23 09:31:00;;;;;;;10.68;9.68;;;23.00;53.50;;;;;;4977387;28;20562;-77
2023/05/23 09:33:36;;;;;;;10.43;9.48;;;23.00;53.40;;;;;;4976990;28;20244;-78
2023/05/23 09:36:04;;;;;;;10.77;9.82;;;23.00;53.40;;;;;;4976967;28;20566;-77
2023/05/23 09:38:32;;;;;;;10.48;9.57;;;23.00;53.30;;;;;;4960971;28;20562;-77
2023/05/23 09:40:59;;;;;;;10.85;9.85;;;23.00;53.20;;;;;;4977024;28;20292;-77
2023/05/23 09:43:26;;;;;;;10.45;9.55;;;23.00;53.10;;;;;;4976837;28;20225;-76
2023/05/23 09:45:54;;;;;;;10.27;9.38;;;23.00;53.10;;;;;;4976744;28;20656;-76
2023/05/23 09:48:29;;;;;;;9.50;8.70;;;23.10;53.00;;;;;;4977486;28;20656;-76
2023/05/23 09:50:57;;;;;;;9.85;8.95;;;23.10;53.00;;;;;;4977529;28;20690;-76
2023/05/23 09:53:23;;;;;;;10.00;9.10;;;23.10;52.80;;;;;;4977059;28;20189;-76
2023/05/23 09:55:51;;;;;;;10.18;9.18;;;23.10;52.90;;;;;;4977416;28;20238;-76
2023/05/23 09:58:19;;;;;;;10.10;9.20;;;23.10;52.70;;;;;;4977236;28;20256;-77
2023/05/23 10:00:46;;;;;;;9.80;8.85;;;23.10;52.70;;;;;;4977185;28;20205;-77
2023/05/23 10:03:13;;;;;;;9.88;8.98;;;23.20;52.70;;;;;;4977139;28;20217;-77
2023/05/23 10:05:45;;;;;;;8.90;8.20;;;23.20;52.70;;;;;;4977188;28;20567;-77
2023/05/23 10:08:14;;;;;;;9.13;8.32;;;23.20;52.70;;;;;;4977339;28;20201;-77
2023/05/23 10:11:29;;;;;;;9.68;8.77;;;23.30;52.70;;;;;;4977330;28;20197;-77
2023/05/23 10:13:57;;;;;;;9.70;8.82;;;23.30;52.60;;;;;;4976640;28;20321;-77
2023/05/23 10:16:28;;;;;;;9.70;8.90;;;23.30;52.50;;;;;;4976601;28;20579;-77
2023/05/23 10:18:57;;;;;;;9.13;8.32;;;23.30;52.60;;;;;;4976806;28;20212;-77
2023/05/23 10:21:30;;;;;;;9.90;9.00;;;23.30;52.50;;;;;;4976797;28;20267;-77
2023/05/23 10:23:58;;;;;;;9.73;8.85;;;23.40;52.50;;;;;;4976621;28;20237;-77
2023/05/23 10:26:26;;;;;;;9.82;8.98;;;23.30;52.40;;;;;;4982320;28;20201;-77
2023/05/23 10:28:53;;;;;;;9.48;8.68;;;23.40;52.40;;;;;;4965170;28;20236;-77
2023/05/23 10:31:21;;;;;;;8.88;8.10;;;23.30;52.30;;;;;;4976924;28;20316;-77
2023/05/23 10:33:52;;;;;;;9.45;8.65;;;23.40;52.40;;;;;;4977168;28;20235;-77
2023/05/23 10:36:22;;;;;;;9.18;8.38;;;23.40;52.30;;;;;;4977523;28;20193;-77
2023/05/23 10:38:52;;;;;;;8.65;7.88;;;23.40;52.20;;;;;;4994041;28;20609;-77
2023/05/23 10:41:23;;;;;;;8.80;8.10;;;23.50;52.20;;;;;;4977497;28;20228;-77
2023/05/23 10:43:52;;;;;;;9.20;8.43;;;23.50;52.10;;;;;;4976817;28;20291;-78
2023/05/23 10:46:20;;;;;;;9.13;8.35;;;23.60;52.20;;;;;;4976537;28;20559;-78
2023/05/23 10:48:48;;;;;;;8.75;8.05;;;23.60;52.00;;;;;;4978806;28;20216;-78
2023/05/23 10:51:16;;;;;;;8.88;8.18;;;23.70;51.90;;;;;;4979706;28;20753;-78
2023/05/23 10:53:43;;;;;;;9.00;8.20;;;23.70;51.80;;;;;;4997620;28;20181;-78
2023/05/23 10:56:18;;;;;;;7.80;7.10;;;23.70;51.80;;;;;;4979795;28;20548;-78
2023/05/23 10:58:46;;;;;;;8.57;7.88;;;23.70;51.70;;;;;;4979788;28;20620;-78
2023/05/23 11:01:13;;;;;;;8.18;7.47;;;23.70;51.60;;;;;;4979781;28;20213;-78
2023/05/23 11:03:50;;;;;;;7.25;6.65;;;23.70;51.60;;;;;;4979884;28;20684;-79
2023/05/23 11:06:29;;;;;;;7.53;6.88;;;23.70;51.60;;;;;;4997267;28;20192;-79
2023/05/23 11:09:02;;;;;;;8.35;7.65;;;23.80;51.70;;;;;;4948858;28;20431;-79
2023/05/23 11:11:56;;;;;;;8.10;7.40;;;23.80;51.60;;;;;;4979619;28;20213;-79
2023/05/23 11:14:36;;;;;;;8.30;7.60;;;23.80;51.60;;;;;;4979548;28;20229;-79
2023/05/23 11:17:15;;;;;;;7.65;7.05;;;23.80;51.60;;;;;;4979310;28;20292;-79
2023/05/23 11:19:55;;;;;;;7.90;7.22;;;23.80;51.60;;;;;;4979645;28;20207;-79
2023/05/23 11:22:22;;;;;;;7.93;7.32;;;23.80;51.50;;;;;;4980500;28;20569;-79
2023/05/23 11:24:53;;;;;;;7.45;6.85;;;23.80;51.40;;;;;;4978745;28;20197;-79
2023/05/23 11:27:28;;;;;;;8.38;7.68;;;23.80;51.40;;;;;;4979431;28;20213;-79
2023/05/23 11:29:58;;;;;;;7.88;7.28;;;23.80;51.40;;;;;;4979340;28;20300;-78
2023/05/23 11:32:28;;;;;;;7.82;7.22;;;23.90;51.40;;;;;;4979003;28;20224;-78
2023/05/23 11:34:55;;;;;;;7.70;7.10;;;23.90;51.30;;;;;;4963631;28;20248;-78
2023/05/23 11:37:23;;;;;;;7.40;6.80;;;24.00;51.30;;;;;;4979081;28;20198;-78
2023/05/23 11:39:50;;;;;;;8.38;7.57;;;23.90;51.10;;;;;;4979186;28;20213;-78
2023/05/23 11:42:18;;;;;;;7.50;6.90;;;23.90;51.10;;;;;;4979487;28;20284;-78
2023/05/23 11:44:48;;;;;;;8.45;7.75;;;24.00;51.20;;;;;;4979184;28;20197;-78
2023/05/23 11:47:15;;;;;;;7.65;7.05;;;24.00;51.10;;;;;;4978807;28;20205;-78
2023/05/23 11:49:44;;;;;;;7.57;6.97;;;24.00;51.00;;;;;;4979354;28;20248;-78
2023/05/23 11:52:11;;;;;;;7.93;7.28;;;24.10;51.00;;;;;;4979302;28;20711;-78
2023/05/23 11:54:40;;;;;;;7.20;6.65;;;24.10;51.00;;;;;;4979143;28;20234;-78
2023/05/23 11:57:07;;;;;;;7.45;6.85;;;24.10;50.90;;;;;;4978879;28;20300;-78
2023/05/23 11:59:34;;;;;;;7.68;7.07;;;24.10;50.80;;;;;;4996444;28;20221;-78
2023/05/23 12:02:03;;;;;;;7.75;7.15;;;24.10;50.70;;;;;;4979143;28;20233;-78
2023/05/23 12:04:30;;;;;;;7.82;7.22;;;24.10;50.70;;;;;;4979187;28;20213;-78
2023/05/23 12:06:58;;;;;;;6.97;6.47;;;24.10;50.70;;;;;;4963481;28;20212;-79
2023/05/23 12:09:25;;;;;;;7.50;6.85;;;24.20;50.70;;;;;;4979606;28;20237;-79
2023/05/23 12:11:52;;;;;;;7.60;7.00;;;24.20;50.60;;;;;;4979827;28;20726;-79
2023/05/23 12:14:19;;;;;;;7.50;7.00;;;24.20;50.50;;;;;;4979639;28;20194;-79
2023/05/23 12:16:46;;;;;;;7.70;7.10;;;24.20;50.50;;;;;;4978695;28;20198;-79
2023/05/23 12:19:16;;;;;;;7.38;6.78;;;24.30;50.50;;;;;;4979464;28;20561;-79
2023/05/23 12:21:44;;;;;;;7.13;6.60;;;24.30;50.50;;;;;;4978644;28;20224;-79
2023/05/23 12:24:16;;;;;;;7.40;6.70;;;24.30;50.40;;;;;;4978443;28;20225;-79
2023/05/23 12:26:49;;;;;;;7.72;7.13;;;24.30;50.40;;;;;;4978526;28;20201;-79
2023/05/23 12:29:19;;;;;;;7.68;7.07;;;24.30;50.40;;;;;;4978242;28;20196;-79
2023/05/23 12:31:49;;;;;;;7.60;7.00;;;24.30;50.40;;;;;;4963285;28;20218;-79
2023/05/23 12:34:17;;;;;;;7.20;6.70;;;24.30;50.30;;;;;;4978574;28;20198;-79
2023/05/23 12:36:47;;;;;;;7.80;7.20;;;24.30;50.30;;;;;;4978223;28;20197;-79
2023/05/23 12:39:14;;;;;;;6.95;6.40;;;24.30;50.30;;;;;;4978265;28;20201;-79
2023/05/23 12:41:42;;;;;;;7.05;6.50;;;24.30;50.30;;;;;;4978308;28;20260;-79
2023/05/23 12:44:10;;;;;;;7.28;6.68;;;24.30;50.30;;;;;;4978188;28;20218;-79
2023/05/23 12:46:37;;;;;;;7.40;6.80;;;24.30;50.30;;;;;;4977931;28;20618;-79